createdAt,value
2022-09-27T00:01:27.038Z,97716.75
2022-09-27T00:03:55.678Z,97722.25
2022-09-27T00:06:23.286Z,97726.72
2022-09-27T00:08:51.043Z,97723.03
2022-09-27T00:11:19.037Z,97728.56
2022-09-27T00:13:46.628Z,97743.53
2022-09-27T00:16:14.283Z,97739.03
2022-09-27T00:18:42.034Z,97739.22
2022-09-27T00:21:09.640Z,97742.06
2022-09-27T00:23:38.588Z,97742.25
2022-09-27T00:26:06.227Z,97748.56
2022-09-27T00:28:33.858Z,97745.09
2022-09-27T00:31:01.508Z,97743.41
2022-09-27T00:33:29.198Z,97750.75
2022-09-27T00:35:57.156Z,97754.44
2022-09-27T00:38:24.951Z,97759.75
2022-09-27T00:40:52.621Z,97753.81
2022-09-27T00:43:20.242Z,97765.47
2022-09-27T00:45:48.137Z,97757.47
2022-09-27T00:48:16.400Z,97761.97
2022-09-27T00:50:44.040Z,97755.16
2022-09-27T00:53:11.729Z,97764.16
2022-09-27T00:55:39.358Z,97773.16
2022-09-27T00:58:06.963Z,97766.34
2022-09-27T01:00:35.140Z,97769.38
2022-09-27T01:03:02.875Z,97771.56
2022-09-27T01:05:30.666Z,97778.91
2022-09-27T01:08:00.872Z,97788.22
2022-09-27T01:10:28.585Z,97783.28
2022-09-27T01:12:57.430Z,97787.91
2022-09-27T01:15:25.086Z,97790.78
2022-09-27T01:17:52.746Z,97789.94
2022-09-27T01:20:20.329Z,97789.28
2022-09-27T01:22:48.146Z,97799.28
2022-09-27T01:25:16.376Z,97796.63
2022-09-27T01:27:44.097Z,97786.16
2022-09-27T01:30:11.952Z,97795.16
2022-09-27T01:32:39.567Z,97798.81
2022-09-27T01:35:07.137Z,97795.16
2022-09-27T01:37:35.467Z,97791.63
2022-09-27T01:40:03.115Z,97803.28
2022-09-27T01:42:30.698Z,97798.34
2022-09-27T01:44:58.274Z,97803.19
2022-09-27T01:47:25.887Z,97803.34
2022-09-27T01:49:53.991Z,97804.34
2022-09-27T01:52:21.872Z,97805.34
2022-09-27T01:54:49.498Z,97798.38
2022-09-27T01:57:17.072Z,97799.34
2022-09-27T01:59:44.713Z,97802.22
2022-09-27T02:02:13.760Z,97803.22
2022-09-27T02:04:41.399Z,97797.91
2022-09-27T02:07:09.052Z,97807.88
2022-09-27T02:09:36.691Z,97806.22
2022-09-27T02:12:04.290Z,97807.22
2022-09-27T02:14:32.411Z,97809.22
2022-09-27T02:17:00.057Z,97806.56
2022-09-27T02:19:27.658Z,97815.56
2022-09-27T02:21:55.232Z,97806.72
2022-09-27T02:24:22.847Z,97817.38
2022-09-27T02:26:50.770Z,97820.03
2022-09-27T02:29:18.339Z,97816.38
2022-09-27T02:31:45.964Z,97809.22
2022-09-27T02:34:13.555Z,97819.72
2022-09-27T02:36:41.419Z,97814.38
2022-09-27T02:39:09.596Z,97820.53
2022-09-27T02:41:37.187Z,97825.84
2022-09-27T02:44:04.899Z,97818.03
2022-09-27T02:46:32.571Z,97821.53
2022-09-27T02:49:00.187Z,97827.84
2022-09-27T02:51:28.364Z,97821.69
2022-09-27T02:53:56.218Z,97827.00
2022-09-27T02:56:23.972Z,97827.00
2022-09-27T02:58:52.590Z,97828.66
2022-09-27T03:01:20.254Z,97833.00
2022-09-27T03:03:48.067Z,97823.34
2022-09-27T03:06:15.638Z,97831.31
2022-09-27T03:08:43.335Z,97830.50
2022-09-27T03:11:10.915Z,97820.88
2022-09-27T03:14:01.350Z,97829.50
2022-09-27T03:16:27.213Z,97834.00
2022-09-27T03:18:55.208Z,97827.00
2022-09-27T03:21:22.811Z,97843.16
2022-09-27T03:23:50.450Z,97837.00
2022-09-27T03:26:18.024Z,97841.50
2022-09-27T03:28:46.471Z,97844.50
2022-09-27T03:31:14.907Z,97845.66
2022-09-27T03:33:42.551Z,97842.38
2022-09-27T03:36:10.149Z,97845.19
2022-09-27T03:38:37.804Z,97853.16
2022-09-27T03:41:06.015Z,97850.50
2022-09-27T03:43:33.574Z,97855.03
2022-09-27T03:46:01.327Z,97858.50
2022-09-27T03:48:31.222Z,97855.03
2022-09-27T03:50:58.840Z,97857.69
2022-09-27T03:53:26.796Z,97855.03
2022-09-27T03:55:54.364Z,97853.38
2022-09-27T03:58:21.942Z,97859.50
2022-09-27T04:00:49.860Z,97861.00
2022-09-27T04:03:17.683Z,97864.28
2022-09-27T04:05:45.788Z,97864.28
2022-09-27T04:08:13.831Z,97863.28
2022-09-27T04:10:41.400Z,97864.94
2022-09-27T04:13:08.971Z,97867.59
2022-09-27T04:15:37.811Z,97858.97
2022-09-27T04:18:05.687Z,97867.13
2022-09-27T04:20:33.288Z,97865.47
2022-09-27T04:23:01.199Z,97864.97
2022-09-27T04:25:29.357Z,97871.66
2022-09-27T04:27:56.964Z,97864.34
2022-09-27T04:30:25.418Z,97866.03
2022-09-27T04:32:53.008Z,97883.00
2022-09-27T04:35:38.118Z,97889.16
2022-09-27T04:38:05.711Z,97898.44
2022-09-27T04:40:33.776Z,97902.75
2022-09-27T04:43:01.432Z,97894.63
2022-09-27T04:45:29.014Z,97891.97
2022-09-27T04:47:56.592Z,97896.63
2022-09-27T04:50:24.223Z,97890.47
2022-09-27T04:52:52.164Z,97905.13
2022-09-27T04:55:19.786Z,97898.31
2022-09-27T04:57:47.425Z,97907.28
2022-09-27T05:00:15.284Z,97915.41
2022-09-27T05:02:42.917Z,97913.75
2022-09-27T05:05:11.688Z,97914.56
2022-09-27T05:07:39.270Z,97921.53
2022-09-27T05:10:07.076Z,97916.22
2022-09-27T05:12:34.747Z,97921.22
2022-09-27T05:15:02.386Z,97923.72
2022-09-27T05:17:30.039Z,97920.06
2022-09-27T05:19:57.739Z,97929.53
2022-09-27T05:22:25.362Z,97927.53
2022-09-27T05:24:52.960Z,97928.19
2022-09-27T05:27:20.906Z,97934.16
2022-09-27T05:29:49.368Z,97937.50
2022-09-27T05:32:16.995Z,97938.16
2022-09-27T05:34:44.646Z,97938.97
2022-09-27T05:37:12.294Z,97944.28
2022-09-27T05:39:39.887Z,97939.97
2022-09-27T05:42:10.557Z,97947.31
2022-09-27T05:44:38.734Z,97938.47
2022-09-27T05:47:06.330Z,97941.81
2022-09-27T05:49:34.301Z,97944.47
2022-09-27T05:52:01.923Z,97957.59
2022-09-27T05:54:30.298Z,97953.13
2022-09-27T05:56:58.609Z,97955.78
2022-09-27T05:59:26.646Z,97953.97
2022-09-27T06:01:54.413Z,97960.09
2022-09-27T06:04:22.107Z,97961.75
2022-09-27T06:06:50.021Z,97962.44
2022-09-27T06:09:17.683Z,97958.56
2022-09-27T06:11:45.642Z,97962.91
2022-09-27T06:14:13.369Z,97956.75
2022-09-27T06:16:41.387Z,97965.41
2022-09-27T06:19:09.450Z,97967.75
2022-09-27T06:21:37.710Z,97959.91
2022-09-27T06:24:05.351Z,97967.91
2022-09-27T06:26:33.829Z,97971.88
2022-09-27T06:29:01.469Z,97976.38
2022-09-27T06:31:30.784Z,97980.72
2022-09-27T06:33:59.086Z,97972.06
2022-09-27T06:36:26.694Z,97970.06
2022-09-27T06:38:54.432Z,97979.19
2022-09-27T06:41:22.153Z,97977.34
2022-09-27T06:43:52.299Z,97982.16
2022-09-27T06:46:20.307Z,97980.66
2022-09-27T06:48:48.453Z,97982.63
2022-09-27T06:51:16.165Z,97983.25
2022-09-27T06:53:44.237Z,97983.22
2022-09-27T06:56:12.931Z,97981.53
2022-09-27T06:58:58.087Z,97984.84
2022-09-27T07:01:25.946Z,97985.22
2022-09-27T07:03:53.635Z,98000.38
2022-09-27T07:06:23.095Z,97990.53
2022-09-27T07:08:51.960Z,97992.19
2022-09-27T07:11:19.848Z,98000.19
2022-09-27T07:13:47.582Z,98003.84
2022-09-27T07:16:15.444Z,98010.69
2022-09-27T07:18:43.539Z,98008.50
2022-09-27T07:21:12.747Z,98018.00
2022-09-27T07:23:40.463Z,98025.13
2022-09-27T07:26:10.776Z,98028.97
2022-09-27T07:28:38.672Z,98031.81
2022-09-27T07:31:06.941Z,98043.97
2022-09-27T07:33:34.767Z,98046.88
2022-09-27T07:36:02.493Z,98041.03
2022-09-27T07:38:30.295Z,98051.38
2022-09-27T07:40:58.045Z,98051.03
2022-09-27T07:43:26.344Z,98055.19
2022-09-27T07:45:54.286Z,98060.53
2022-09-27T07:48:21.954Z,98058.88
2022-09-27T07:50:49.685Z,98067.00
2022-09-27T07:53:17.377Z,98069.66
2022-09-27T07:55:46.916Z,98067.84
2022-09-27T07:58:14.619Z,98067.84
2022-09-27T08:00:42.590Z,98065.84
2022-09-27T08:03:10.426Z,98071.66
2022-09-27T08:05:38.300Z,98070.50
2022-09-27T08:08:07.210Z,98077.81
2022-09-27T08:10:35.013Z,98078.97
2022-09-27T08:13:03.667Z,98074.16
2022-09-27T08:15:31.546Z,98080.47
2022-09-27T08:17:59.635Z,98082.28
2022-09-27T08:20:28.001Z,98086.47
2022-09-27T08:22:55.726Z,98089.47
2022-09-27T08:25:24.672Z,98084.59
2022-09-27T08:27:52.425Z,98091.41
2022-09-27T08:30:20.203Z,98085.94
2022-09-27T08:32:48.479Z,98091.25
2022-09-27T08:35:16.697Z,98094.09
2022-09-27T08:37:44.502Z,98092.09
2022-09-27T08:40:12.454Z,98093.56
2022-09-27T08:42:40.356Z,98097.41
2022-09-27T08:45:09.004Z,98091.88
2022-09-27T08:47:36.671Z,98098.03
2022-09-27T08:50:04.418Z,98092.38
2022-09-27T08:52:32.214Z,98103.69
2022-09-27T08:55:00.072Z,98102.53
2022-09-27T08:57:28.387Z,98102.53
2022-09-27T08:59:56.495Z,98121.34
2022-09-27T09:02:24.884Z,98116.34
2022-09-27T09:04:52.679Z,98122.00
2022-09-27T09:07:20.460Z,98117.69
2022-09-27T09:09:48.748Z,98117.34
2022-09-27T09:12:33.833Z,98120.69
2022-09-27T09:15:01.627Z,98110.03
2022-09-27T09:17:29.618Z,98115.66
2022-09-27T09:19:58.797Z,98111.97
2022-09-27T09:22:29.137Z,98113.94
2022-09-27T09:24:56.947Z,98115.72
2022-09-27T09:27:24.640Z,98107.50
2022-09-27T09:29:52.308Z,98113.34
2022-09-27T09:32:20.229Z,98103.53
2022-09-27T09:34:48.000Z,98090.72
2022-09-27T09:37:15.681Z,98106.06
2022-09-27T09:39:43.465Z,98093.22
2022-09-27T09:42:11.261Z,98099.91
2022-09-27T09:44:39.311Z,98089.91
2022-09-27T09:47:07.021Z,98085.75
2022-09-27T09:49:34.770Z,98098.34
2022-09-27T09:52:06.546Z,98095.28
2022-09-27T09:54:36.545Z,98092.75
2022-09-27T09:57:04.609Z,98102.03
2022-09-27T09:59:32.485Z,98093.81
2022-09-27T10:02:01.340Z,98093.03
2022-09-27T10:04:29.197Z,98086.56
2022-09-27T10:06:57.029Z,98094.09
2022-09-27T10:09:26.304Z,98086.44
2022-09-27T10:11:54.182Z,98086.81
2022-09-27T10:14:21.954Z,98081.84
2022-09-27T10:16:49.741Z,98093.53
2022-09-27T10:19:17.549Z,98077.91
2022-09-27T10:21:46.599Z,98091.78
2022-09-27T10:24:18.213Z,98082.28
2022-09-27T10:26:47.244Z,98085.97
2022-09-27T10:29:15.143Z,98090.94
2022-09-27T10:31:47.051Z,98087.94
2022-09-27T10:34:15.799Z,98087.09
2022-09-27T10:36:43.844Z,98087.63
2022-09-27T10:39:11.731Z,98083.88
2022-09-27T10:41:39.630Z,98078.72
2022-09-27T10:44:07.751Z,98074.34
2022-09-27T10:46:36.095Z,98077.97
2022-09-27T10:49:03.986Z,98080.63
2022-09-27T10:51:31.775Z,98078.84
2022-09-27T10:54:01.678Z,98079.56
2022-09-27T10:56:29.973Z,98069.72
2022-09-27T10:58:59.343Z,98071.47
2022-09-27T11:01:27.269Z,98078.84
2022-09-27T11:03:55.336Z,98078.38
2022-09-27T11:06:23.379Z,98079.69
2022-09-27T11:08:51.937Z,98078.38
2022-09-27T11:11:20.093Z,98076.34
2022-09-27T11:13:47.850Z,98078.91
2022-09-27T11:16:15.700Z,98078.69
2022-09-27T11:18:43.567Z,98072.22
2022-09-27T11:21:11.859Z,98084.88
2022-09-27T11:23:39.623Z,98081.34
2022-09-27T11:26:08.014Z,98067.53
2022-09-27T11:28:36.734Z,98075.72
2022-09-27T11:31:04.851Z,98074.34
2022-09-27T11:33:33.292Z,98068.94
2022-09-27T11:36:01.575Z,98060.94
2022-09-27T11:38:51.661Z,98063.19
2022-09-27T11:41:17.150Z,98064.47
2022-09-27T11:43:45.761Z,98064.00
2022-09-27T11:46:20.559Z,98054.41
2022-09-27T11:48:53.144Z,98055.50
2022-09-27T11:51:20.976Z,98047.63
2022-09-27T11:53:49.099Z,98033.31
2022-09-27T11:56:17.690Z,98035.16
2022-09-27T11:58:45.477Z,98027.59
2022-09-27T12:01:13.406Z,98031.91
2022-09-27T12:03:42.743Z,98039.50
2022-09-27T12:06:11.043Z,98033.06
2022-09-27T12:08:39.262Z,98040.38
2022-09-27T12:11:07.036Z,98033.56
2022-09-27T12:13:34.995Z,98031.19
2022-09-27T12:16:03.419Z,98023.84
2022-09-27T12:18:32.864Z,98031.16
2022-09-27T12:21:01.168Z,98025.25
2022-09-27T12:23:29.011Z,98026.34
2022-09-27T12:25:57.377Z,98024.94
2022-09-27T12:28:28.274Z,98028.22
2022-09-27T12:31:11.076Z,98032.28
2022-09-27T12:33:45.420Z,98037.88
2022-09-27T12:36:13.289Z,98024.66
2022-09-27T12:38:41.254Z,98036.56
2022-09-27T12:41:09.243Z,98038.38
2022-09-27T12:43:37.069Z,98037.28
2022-09-27T12:46:05.386Z,98023.84
2022-09-27T12:48:33.217Z,98041.03
2022-09-27T12:51:01.315Z,98035.84
2022-09-27T12:53:29.513Z,98040.06
2022-09-27T12:55:57.577Z,98043.53
2022-09-27T12:58:25.869Z,98043.84
2022-09-27T13:00:53.663Z,98043.31
2022-09-27T13:03:26.116Z,98044.38
2022-09-27T13:05:54.746Z,98033.50
2022-09-27T13:08:22.523Z,98033.97
2022-09-27T13:10:50.628Z,98036.75
2022-09-27T13:13:18.515Z,98036.75
2022-09-27T13:15:46.895Z,98033.31
2022-09-27T13:18:15.339Z,98030.75
2022-09-27T13:20:46.492Z,98031.44
2022-09-27T13:23:14.683Z,98031.91
2022-09-27T13:25:42.612Z,98042.81
2022-09-27T13:28:10.421Z,98038.75
2022-09-27T13:30:38.918Z,98042.56
2022-09-27T13:33:06.756Z,98040.03
2022-09-27T13:35:35.305Z,98047.13
2022-09-27T13:38:03.203Z,98052.34
2022-09-27T13:40:31.116Z,98053.16
2022-09-27T13:42:59.618Z,98065.19
2022-09-27T13:45:30.310Z,98067.41
2022-09-27T13:47:59.195Z,98075.47
2022-09-27T13:50:27.042Z,98068.16
2022-09-27T13:52:55.163Z,98075.06
2022-09-27T13:55:23.934Z,98083.13
2022-09-27T13:57:51.686Z,98076.38
2022-09-27T14:00:20.262Z,98090.75
2022-09-27T14:02:48.242Z,98080.97
2022-09-27T14:05:16.153Z,98077.31
2022-09-27T14:07:44.555Z,98084.47
2022-09-27T14:10:12.413Z,98079.81
2022-09-27T14:12:40.797Z,98080.81
2022-09-27T14:15:08.824Z,98078.78
2022-09-27T14:17:36.922Z,98077.81
2022-09-27T14:20:07.465Z,98076.63
2022-09-27T14:22:35.437Z,98072.66
2022-09-27T14:25:05.266Z,98080.28
2022-09-27T14:27:33.169Z,98082.78
2022-09-27T14:30:01.968Z,98075.44
2022-09-27T14:32:32.514Z,98069.78
2022-09-27T14:35:00.362Z,98075.13
2022-09-27T14:37:27.151Z,98082.44
2022-09-27T14:39:55.444Z,98070.59
2022-09-27T14:42:23.291Z,98083.25
2022-09-27T14:44:51.762Z,98081.56
2022-09-27T14:47:19.587Z,98087.03
2022-09-27T14:49:47.411Z,98082.03
2022-09-27T14:52:15.535Z,98084.34
2022-09-27T14:54:44.314Z,98085.69
2022-09-27T14:57:12.515Z,98087.69
2022-09-27T14:59:44.653Z,98090.63
2022-09-27T15:02:13.188Z,98086.81
2022-09-27T15:04:42.290Z,98092.97
2022-09-27T15:07:10.249Z,98097.47
2022-09-27T15:09:38.399Z,98088.81
2022-09-27T15:12:07.274Z,98088.81
2022-09-27T15:14:37.815Z,98097.28
2022-09-27T15:17:07.254Z,98093.31
2022-09-27T15:19:35.110Z,98092.78
2022-09-27T15:22:03.491Z,98096.59
2022-09-27T15:24:31.551Z,98090.09
2022-09-27T15:26:59.398Z,98086.06
2022-09-27T15:29:27.489Z,98091.22
2022-09-27T15:31:55.278Z,98097.72
2022-09-27T15:34:23.429Z,98098.25
2022-09-27T15:36:51.728Z,98099.78
2022-09-27T15:39:19.618Z,98100.28
2022-09-27T15:41:47.969Z,98095.63
2022-09-27T15:44:15.853Z,98095.31
2022-09-27T15:46:44.620Z,98104.19
2022-09-27T15:49:12.411Z,98097.88
2022-09-27T15:51:40.395Z,98106.53
2022-09-27T15:54:08.706Z,98109.84
2022-09-27T15:56:36.896Z,98106.69
2022-09-27T15:59:05.119Z,98110.72
2022-09-27T16:01:33.021Z,98107.72
2022-09-27T16:04:00.989Z,98106.22
2022-09-27T16:06:29.120Z,98107.38
2022-09-27T16:08:57.433Z,98112.06
2022-09-27T16:11:25.787Z,98101.56
2022-09-27T16:13:55.648Z,98103.56
2022-09-27T16:16:23.689Z,98107.41
2022-09-27T16:18:51.773Z,98109.25
2022-09-27T16:21:19.644Z,98109.41
2022-09-27T16:23:47.960Z,98106.91
2022-09-27T16:26:15.905Z,98102.56
2022-09-27T16:28:43.904Z,98097.44
2022-09-27T16:31:12.726Z,98110.91
2022-09-27T16:33:40.633Z,98108.25
2022-09-27T16:36:14.566Z,98105.75
2022-09-27T16:38:42.475Z,98103.25
2022-09-27T16:41:10.417Z,98107.75
2022-09-27T16:43:38.555Z,98111.41
2022-09-27T16:46:09.286Z,98118.72
2022-09-27T16:48:37.643Z,98112.72
2022-09-27T16:51:23.022Z,98113.72
2022-09-27T16:53:51.059Z,98107.75
2022-09-27T16:56:20.524Z,98109.75
2022-09-27T16:58:48.560Z,98104.44
2022-09-27T17:01:17.032Z,98110.06
2022-09-27T17:03:45.154Z,98098.78
2022-09-27T17:06:13.354Z,98104.41
2022-09-27T17:08:41.193Z,98107.25
2022-09-27T17:11:09.324Z,98107.56
2022-09-27T17:13:37.214Z,98108.56
2022-09-27T17:16:05.302Z,98106.09
2022-09-27T17:18:33.369Z,98112.38
2022-09-27T17:21:01.128Z,98112.38
2022-09-27T17:23:29.613Z,98114.88
2022-09-27T17:25:57.749Z,98121.69
2022-09-27T17:28:25.794Z,98111.66
2022-09-27T17:30:56.481Z,98111.13
2022-09-27T17:33:24.300Z,98112.78
2022-09-27T17:35:52.618Z,98093.66
2022-09-27T17:38:20.729Z,98105.44
2022-09-27T17:40:48.816Z,98099.63
2022-09-27T17:43:16.945Z,98094.47
2022-09-27T17:45:44.722Z,98101.75
2022-09-27T17:48:29.982Z,98096.59
2022-09-27T17:50:57.989Z,98090.63
2022-09-27T17:53:25.904Z,98090.81
2022-09-27T17:55:55.186Z,98085.66
2022-09-27T17:58:23.029Z,98083.00
2022-09-27T18:00:51.178Z,98085.81
2022-09-27T18:03:19.056Z,98083.28
2022-09-27T18:05:47.203Z,98078.16
2022-09-27T18:08:15.045Z,98075.66
2022-09-27T18:10:43.011Z,98081.31
2022-09-27T18:13:11.155Z,98076.28
2022-09-27T18:15:40.272Z,98070.66
2022-09-27T18:18:13.021Z,98074.59
2022-09-27T18:20:40.759Z,98062.66
2022-09-27T18:23:08.658Z,98069.94
2022-09-27T18:25:39.698Z,98071.06
2022-09-27T18:28:07.428Z,98063.28
2022-09-27T18:30:35.498Z,98064.28
2022-09-27T18:33:03.385Z,98062.59
2022-09-27T18:35:31.211Z,98056.31
2022-09-27T18:37:59.414Z,98058.97
2022-09-27T18:40:51.352Z,98061.63
2022-09-27T18:43:15.444Z,98061.63
2022-09-27T18:45:43.413Z,98056.31
2022-09-27T18:48:11.932Z,98057.97
2022-09-27T18:50:39.802Z,98056.13
2022-09-27T18:53:08.705Z,98050.69
2022-09-27T18:55:36.830Z,98050.69
2022-09-27T18:58:04.700Z,98047.03
2022-09-27T19:00:33.293Z,98053.19
2022-09-27T19:03:01.087Z,98047.88
2022-09-27T19:05:29.056Z,98051.19
2022-09-27T19:07:57.398Z,98056.50
2022-09-27T19:10:25.288Z,98049.38
2022-09-27T19:12:56.761Z,98052.69
2022-09-27T19:15:25.212Z,98053.69
2022-09-27T19:17:53.074Z,98047.38
2022-09-27T19:20:21.105Z,98055.34
2022-09-27T19:22:49.436Z,98054.34
2022-09-27T19:25:17.699Z,98051.69
2022-09-27T19:27:45.578Z,98049.69
2022-09-27T19:30:13.411Z,98039.09
2022-09-27T19:32:41.575Z,98044.38
2022-09-27T19:35:09.599Z,98052.06
2022-09-27T19:37:37.579Z,98049.41
2022-09-27T19:40:05.523Z,98045.75
2022-09-27T19:42:33.183Z,98039.44
2022-09-27T19:45:01.602Z,98040.25
2022-09-27T19:47:29.413Z,98033.78
2022-09-27T19:49:57.780Z,98023.84
2022-09-27T19:52:25.725Z,98019.88
2022-09-27T19:54:53.553Z,98022.53
2022-09-27T19:57:22.073Z,98020.00
2022-09-27T19:59:50.015Z,98019.34
2022-09-27T20:02:18.357Z,98016.19
2022-09-27T20:04:46.376Z,98011.22
2022-09-27T20:07:14.773Z,98009.72
2022-09-27T20:09:42.988Z,98016.84
2022-09-27T20:12:10.874Z,98018.81
2022-09-27T20:14:41.156Z,98019.81
2022-09-27T20:17:09.785Z,98009.19
2022-09-27T20:19:38.656Z,98020.81
2022-09-27T20:22:06.935Z,98009.53
2022-09-27T20:24:34.815Z,98004.53
2022-09-27T20:27:02.848Z,98002.22
2022-09-27T20:29:31.542Z,97998.84
2022-09-27T20:32:22.870Z,98001.69
2022-09-27T20:34:47.877Z,97995.69
2022-09-27T20:37:16.050Z,97994.03
2022-09-27T20:39:43.873Z,98001.00
2022-09-27T20:42:11.892Z,97986.56
2022-09-27T20:44:39.775Z,97989.59
2022-09-27T20:47:07.930Z,97983.94
2022-09-27T20:49:36.594Z,97989.59
2022-09-27T20:52:04.488Z,97993.63
2022-09-27T20:54:33.299Z,97979.16
2022-09-27T20:57:01.070Z,97973.53
2022-09-27T20:59:29.246Z,97972.38
2022-09-27T21:01:57.636Z,97962.25
2022-09-27T21:04:25.497Z,97974.34
2022-09-27T21:06:53.339Z,97966.38
2022-09-27T21:09:21.162Z,97965.22
2022-09-27T21:11:49.275Z,97957.94
2022-09-27T21:14:17.145Z,97955.44
2022-09-27T21:16:45.102Z,97960.09
2022-09-27T21:19:12.954Z,97958.09
2022-09-27T21:21:40.804Z,97951.94
2022-09-27T21:24:08.750Z,97958.06
2022-09-27T21:26:36.503Z,97956.22
2022-09-27T21:29:04.276Z,97955.03
2022-09-27T21:31:32.395Z,97943.06
2022-09-27T21:34:00.553Z,97946.06
2022-09-27T21:36:28.695Z,97950.72
2022-09-27T21:38:56.807Z,97956.03
2022-09-27T21:41:25.823Z,97956.31
2022-09-27T21:43:53.567Z,97951.34
2022-09-27T21:46:21.408Z,97949.84
2022-09-27T21:48:50.613Z,97947.34
2022-09-27T21:51:18.686Z,97943.88
2022-09-27T21:53:46.744Z,97944.69
2022-09-27T21:56:14.408Z,97939.72
2022-09-27T21:58:42.379Z,97928.44
2022-09-27T22:01:10.377Z,97925.94
2022-09-27T22:03:38.523Z,97924.28
2022-09-27T22:06:06.200Z,97925.44
2022-09-27T22:08:33.883Z,97920.13
2022-09-27T22:11:01.565Z,97923.44
2022-09-27T22:13:29.596Z,97923.28
2022-09-27T22:15:57.947Z,97918.81
2022-09-27T22:18:25.649Z,97912.31
2022-09-27T22:20:53.326Z,97909.84
2022-09-27T22:23:20.900Z,97903.56
2022-09-27T22:25:48.521Z,97892.94
2022-09-27T22:28:16.474Z,97892.94
2022-09-27T22:30:44.032Z,97889.28
2022-09-27T22:33:11.993Z,97883.13
2022-09-27T22:35:39.835Z,97883.13
2022-09-27T22:38:09.557Z,97883.97
2022-09-27T22:40:37.598Z,97874.34
2022-09-27T22:43:05.186Z,97875.00
2022-09-27T22:45:32.773Z,97868.69
2022-09-27T22:48:00.371Z,97857.94
2022-09-27T22:50:28.239Z,97854.28
2022-09-27T22:52:55.776Z,97865.75
2022-09-27T22:55:23.382Z,97855.94
2022-09-27T22:57:50.943Z,97856.59
2022-09-27T23:00:18.830Z,97853.13
2022-09-27T23:02:46.634Z,97848.31
2022-09-27T23:05:14.573Z,97850.81
2022-09-27T23:07:42.087Z,97846.31
2022-09-27T23:10:09.650Z,97840.00
2022-09-27T23:12:37.222Z,97843.66
2022-09-27T23:15:05.349Z,97844.50
2022-09-27T23:17:34.177Z,97841.00
2022-09-27T23:20:02.791Z,97836.34
2022-09-27T23:22:30.708Z,97839.00
2022-09-27T23:24:58.310Z,97833.53
2022-09-27T23:27:45.625Z,97838.53
2022-09-27T23:30:13.248Z,97840.00
2022-09-27T23:32:40.821Z,97842.50
2022-09-27T23:35:08.399Z,97831.75
2022-09-27T23:37:36.026Z,97837.84
2022-09-27T23:40:04.148Z,97829.75
2022-09-27T23:42:31.669Z,97832.41
2022-09-27T23:44:59.268Z,97822.63
2022-09-27T23:47:26.821Z,97820.78
2022-09-27T23:49:54.375Z,97833.91
2022-09-27T23:52:22.138Z,97834.72
2022-09-27T23:54:50.221Z,97832.88
2022-09-27T23:57:17.772Z,97829.25
2022-09-27T23:59:45.402Z,97830.09
